Time;durP1;ratioP1;P1;durP2;ratioP2;P2;SDS_P1;SDS_P2;PMS_P1;PMS_P2;Temp;Humidity;BMP_temperature;BMP_pressure;BME280_temperature;BME280_humidity;BME280_pressure;Samples;Min_cycle;Max_cycle;Signal;HPM_P1;HPM_P2
2023/11/17 00:00:41;;;;;;;;;;;;;;;;;;5045947;27;89944;-69
2023/11/17 00:03:07;;;;;;;;;;;;;;;;;;5048368;27;89351;-62
2023/11/17 00:05:32;;;;;;;;;;;;;;;;;;5033261;27;89879;-60
2023/11/17 00:07:57;;;;;;;;;;;;;;;;;;5034469;27;90444;-62
2023/11/17 00:10:22;;;;;;;;;;;;;;;;;;5030461;27;89723;-60
2023/11/17 00:12:48;;;;;;;;;;;;;;;;;;5043190;27;89525;-59
2023/11/17 00:15:14;;;;;;;;;;;;;;;;;;5038368;27;90725;-59
2023/11/17 00:17:39;;;;;;;;;;;;;;;;;;5027584;27;89644;-60
2023/11/17 00:20:06;;;;;;;;;;;;;;;;;;5034624;27;89891;-62
2023/11/17 00:22:31;;;;;;;;;;;;;;;;;;5038053;27;89284;-58
2023/11/17 00:24:56;;;;;;;;;;;;;;;;;;5035013;27;89669;-60
2023/11/17 00:27:21;;;;;;;;;;;;;;;;;;5030509;27;91115;-59
2023/11/17 00:29:48;;;;;;;;;;;;;;;;;;5038616;27;89513;-59
2023/11/17 00:32:14;;;;;;;;;;;;;;;;;;5038769;27;89826;-61
2023/11/17 00:34:39;;;;;;;;;;;;;;;;;;5033863;27;89146;-62
2023/11/17 00:37:07;;;;;;;;;;;;;;;;;;5038932;27;90296;-62
2023/11/17 00:39:32;;;;;;;;;;;;;;;;;;5040450;27;90700;-59
2023/11/17 00:41:58;;;;;;;;;;;;;;;;;;5039574;27;89921;-62
2023/11/17 00:44:23;;;;;;;;;;;;;;;;;;5039624;27;89452;-59
2023/11/17 00:46:48;;;;;;;;;;;;;;;;;;5036553;27;90054;-59
2023/11/17 00:49:13;;;;;;;;;;;;;;;;;;5037942;27;89515;-62
2023/11/17 00:51:40;;;;;;;;;;;;;;;;;;5038249;27;89995;-61
2023/11/17 00:54:06;;;;;;;;;;;;;;;;;;5039018;27;89286;-60
2023/11/17 00:56:32;;;;;;;;;;;;;;;;;;5036596;27;90131;-59
2023/11/17 00:58:58;;;;;;;;;;;;;;;;;;5038321;27;90328;-58
2023/11/17 01:01:23;;;;;;;;;;;;;;;;;;5038128;27;90047;-59
2023/11/17 01:03:48;;;;;;;;;;;;;;;;;;5029342;27;89741;-59
2023/11/17 01:06:14;;;;;;;;;;;;;;;;;;5033886;27;90729;-59
2023/11/17 01:08:39;;;;;;;;;;;;;;;;;;5034345;27;89935;-61
2023/11/17 01:11:05;;;;;;;;;;;;;;;;;;5035955;27;90063;-61
2023/11/17 01:13:31;;;;;;;;;;;;;;;;;;5039906;27;89841;-59
2023/11/17 01:15:56;;;;;;;;;;;;;;;;;;5037332;27;89103;-62
2023/11/17 01:18:22;;;;;;;;;;;;;;;;;;5039284;27;89761;-59
2023/11/17 01:20:47;;;;;;;;;;;;;;;;;;5038371;27;89314;-59
2023/11/17 01:23:13;;;;;;;;;;;;;;;;;;5037068;27;88996;-60
2023/11/17 01:25:38;;;;;;;;;;;;;;;;;;5037345;27;90703;-59
2023/11/17 01:28:03;;;;;;;;;;;;;;;;;;5041096;27;89833;-58
2023/11/17 01:30:30;;;;;;;;;;;;;;;;;;5035808;27;90779;-60
2023/11/17 01:32:55;;;;;;;;;;;;;;;;;;5028062;27;90247;-59
2023/11/17 01:35:20;;;;;;;;;;;;;;;;;;5037582;27;89424;-62
2023/11/17 01:37:46;;;;;;;;;;;;;;;;;;5037314;27;90322;-61
2023/11/17 01:40:11;;;;;;;;;;;;;;;;;;5035737;27;89406;-59
2023/11/17 01:42:37;;;;;;;;;;;;;;;;;;5036381;27;89220;-59
2023/11/17 01:45:07;;;;;;;;;;;;;;;;;;5035839;27;89349;-62
2023/11/17 01:47:32;;;;;;;;;;;;;;;;;;5036134;27;89951;-60
2023/11/17 01:49:57;;;;;;;;;;;;;;;;;;5040183;27;88975;-60
2023/11/17 01:52:23;;;;;;;;;;;;;;;;;;5037563;27;90638;-60
2023/11/17 01:54:48;;;;;;;;;;;;;;;;;;5035303;27;90109;-61
2023/11/17 01:57:13;;;;;;;;;;;;;;;;;;5031637;27;90666;-59
2023/11/17 01:59:39;;;;;;;;;;;;;;;;;;5034371;27;90074;-60
2023/11/17 02:02:04;;;;;;;;;;;;;;;;;;5035121;27;90059;-59
2023/11/17 02:04:30;;;;;;;;;;;;;;;;;;5032123;27;89998;-58
2023/11/17 02:06:59;;;;;;;;;;;;;;;;;;5032452;27;89763;-59
2023/11/17 02:09:36;;;;;;;;;;;;;;;;;;5037845;27;89631;-59
2023/11/17 02:12:14;;;;;;;;;;;;;;;;;;5042349;27;89705;-59
2023/11/17 02:14:42;;;;;;;;;;;;;;;;;;5037423;27;89688;-59
2023/11/17 02:17:08;;;;;;;;;;;;;;;;;;5037586;27;90605;-60
2023/11/17 02:19:42;;;;;;;;;;;;;;;;;;5035403;27;89338;-61
2023/11/17 02:22:17;;;;;;;;;;;;;;;;;;5035020;27;89515;-62
2023/11/17 02:24:55;;;;;;;;;;;;;;;;;;5032383;27;90409;-60
2023/11/17 02:27:40;;;;;;;;;;;;;;;;;;5028129;27;90220;-61
2023/11/17 02:30:06;;;;;;;;;;;;;;;;;;5034148;27;89265;-59
2023/11/17 02:32:31;;;;;;;;;;;;;;;;;;5039809;27;91074;-59
2023/11/17 02:34:58;;;;;;;;;;;;;;;;;;5030177;27;90120;-58
2023/11/17 02:37:26;;;;;;;;;;;;;;;;;;5026373;27;90432;-60
2023/11/17 02:39:57;;;;;;;;;;;;;;;;;;5036133;27;91191;-62
2023/11/17 02:42:26;;;;;;;;;;;;;;;;;;5033821;27;89044;-63
2023/11/17 02:44:52;;;;;;;;;;;;;;;;;;5037709;27;90965;-62
2023/11/17 02:47:27;;;;;;;;;;;;;;;;;;5037228;27;89115;-62
2023/11/17 02:49:58;;;;;;;;;;;;;;;;;;5033995;27;89374;-62
2023/11/17 02:52:31;;;;;;;;;;;;;;;;;;5035614;27;90839;-59
2023/11/17 02:54:58;;;;;;;;;;;;;;;;;;5041423;27;89414;-59
2023/11/17 02:57:25;;;;;;;;;;;;;;;;;;5035800;27;89496;-60
2023/11/17 02:59:51;;;;;;;;;;;;;;;;;;5036086;27;89445;-59
2023/11/17 03:02:19;;;;;;;;;;;;;;;;;;5035615;27;89718;-61
2023/11/17 03:04:44;;;;;;;;;;;;;;;;;;5033784;27;89554;-59
2023/11/17 03:07:10;;;;;;;;;;;;;;;;;;5031027;27;90863;-59
2023/11/17 03:09:36;;;;;;;;;;;;;;;;;;5038292;27;89997;-59
2023/11/17 03:12:01;;;;;;;;;;;;;;;;;;5039742;27;89560;-59
2023/11/17 03:14:26;;;;;;;;;;;;;;;;;;5040031;27;90337;-60
2023/11/17 03:16:53;;;;;;;;;;;;;;;;;;5038918;27;89322;-59
2023/11/17 03:19:18;;;;;;;;;;;;;;;;;;5035567;27;90154;-60
2023/11/17 03:21:44;;;;;;;;;;;;;;;;;;5016253;27;89735;-61
2023/11/17 03:24:20;;;;;;;;;;;;;;;;;;5036495;27;91236;-59
2023/11/17 03:26:47;;;;;;;;;;;;;;;;;;5039663;27;90621;-59
2023/11/17 03:29:14;;;;;;;;;;;;;;;;;;5038479;27;89447;-58
2023/11/17 03:31:40;;;;;;;;;;;;;;;;;;5041714;27;91842;-60
2023/11/17 03:34:09;;;;;;;;;;;;;;;;;;5040314;27;90416;-59
2023/11/17 03:36:35;;;;;;;;;;;;;;;;;;5039697;27;89082;-60
2023/11/17 03:39:00;;;;;;;;;;;;;;;;;;5042681;27;90279;-60
2023/11/17 03:41:26;;;;;;;;;;;;;;;;;;5038873;27;89946;-59
2023/11/17 03:43:51;;;;;;;;;;;;;;;;;;5040194;27;90706;-59
2023/11/17 03:46:16;;;;;;;;;;;;;;;;;;5039729;27;89956;-60
2023/11/17 03:48:42;;;;;;;;;;;;;;;;;;5040990;27;89478;-60
2023/11/17 03:51:08;;;;;;;;;;;;;;;;;;5037992;27;89492;-60
2023/11/17 03:53:36;;;;;;;;;;;;;;;;;;5034808;27;89768;-62
2023/11/17 03:56:03;;;;;;;;;;;;;;;;;;5041367;27;90251;-60
2023/11/17 03:58:28;;;;;;;;;;;;;;;;;;5039099;27;89610;-63
2023/11/17 04:00:54;;;;;;;;;;;;;;;;;;5044764;27;89253;-63
2023/11/17 04:03:20;;;;;;;;;;;;;;;;;;5044206;27;89552;-61
2023/11/17 04:05:45;;;;;;;;;;;;;;;;;;5044127;27;89965;-59
2023/11/17 04:08:11;;;;;;;;;;;;;;;;;;5040951;27;89658;-60
2023/11/17 04:10:36;;;;;;;;;;;;;;;;;;5043768;27;89674;-63
2023/11/17 04:13:01;;;;;;;;;;;;;;;;;;5042945;27;89618;-61
2023/11/17 04:15:26;;;;;;;;;;;;;;;;;;5044773;27;89787;-59
2023/11/17 04:17:52;;;;;;;;;;;;;;;;;;5041827;27;90817;-62
2023/11/17 04:20:19;;;;;;;;;;;;;;;;;;5039454;27;92632;-63
2023/11/17 04:22:44;;;;;;;;;;;;;;;;;;5043419;27;89376;-63
2023/11/17 04:25:09;;;;;;;;;;;;;;;;;;5040377;27;89332;-62
2023/11/17 04:27:35;;;;;;;;;;;;;;;;;;5040765;27;89778;-61
2023/11/17 04:30:01;;;;;;;;;;;;;;;;;;5044836;27;90282;-63
2023/11/17 04:32:26;;;;;;;;;;;;;;;;;;5040309;27;90189;-64
2023/11/17 04:34:52;;;;;;;;;;;;;;;;;;5041278;27;89811;-62
2023/11/17 04:37:19;;;;;;;;;;;;;;;;;;5038238;27;89605;-63
2023/11/17 04:39:44;;;;;;;;;;;;;;;;;;5045269;27;89178;-63
2023/11/17 04:42:10;;;;;;;;;;;;;;;;;;5044177;27;90005;-59
2023/11/17 04:44:35;;;;;;;;;;;;;;;;;;5039362;27;89477;-63
2023/11/17 04:47:00;;;;;;;;;;;;;;;;;;5044570;27;90025;-62
2023/11/17 04:49:27;;;;;;;;;;;;;;;;;;5042165;27;89540;-62
2023/11/17 04:51:52;;;;;;;;;;;;;;;;;;5038716;27;90809;-61
2023/11/17 04:54:17;;;;;;;;;;;;;;;;;;5044188;27;89653;-61
2023/11/17 04:56:43;;;;;;;;;;;;;;;;;;5043992;27;89590;-63
2023/11/17 04:59:10;;;;;;;;;;;;;;;;;;5042956;27;89940;-60
2023/11/17 05:01:36;;;;;;;;;;;;;;;;;;5038166;27;89921;-62
2023/11/17 05:04:02;;;;;;;;;;;;;;;;;;5045901;27;89658;-63
2023/11/17 05:06:27;;;;;;;;;;;;;;;;;;5042368;27;89313;-63
2023/11/17 05:08:53;;;;;;;;;;;;;;;;;;5019654;27;92293;-59
2023/11/17 05:11:21;;;;;;;;;;;;;;;;;;5034171;27;89834;-59
2023/11/17 05:13:46;;;;;;;;;;;;;;;;;;5038389;27;89324;-58
2023/11/17 05:16:14;;;;;;;;;;;;;;;;;;5035537;27;90344;-59
2023/11/17 05:18:39;;;;;;;;;;;;;;;;;;5040088;27;89135;-58
2023/11/17 05:21:06;;;;;;;;;;;;;;;;;;5043162;27;89777;-58
2023/11/17 05:23:32;;;;;;;;;;;;;;;;;;5044469;27;89814;-59
2023/11/17 05:25:57;;;;;;;;;;;;;;;;;;5045032;27;89811;-61
2023/11/17 05:28:24;;;;;;;;;;;;;;;;;;5042207;27;90464;-62
2023/11/17 05:30:50;;;;;;;;;;;;;;;;;;5040363;27;90016;-59
2023/11/17 05:33:18;;;;;;;;;;;;;;;;;;5040784;27;90802;-59
2023/11/17 05:35:43;;;;;;;;;;;;;;;;;;5041842;27;90706;-58
2023/11/17 05:38:08;;;;;;;;;;;;;;;;;;5037585;27;89760;-59
2023/11/17 05:40:34;;;;;;;;;;;;;;;;;;5039378;27;89084;-60
2023/11/17 05:43:00;;;;;;;;;;;;;;;;;;5035470;27;89681;-59
2023/11/17 05:45:26;;;;;;;;;;;;;;;;;;5043615;27;91065;-60
2023/11/17 05:47:52;;;;;;;;;;;;;;;;;;5040068;27;89566;-58
2023/11/17 05:50:18;;;;;;;;;;;;;;;;;;5037835;27;89513;-59
2023/11/17 05:52:44;;;;;;;;;;;;;;;;;;5041957;27;89988;-61
2023/11/17 05:55:11;;;;;;;;;;;;;;;;;;5037863;27;89580;-60
2023/11/17 05:57:37;;;;;;;;;;;;;;;;;;5038129;27;90206;-59
2023/11/17 06:00:08;;;;;;;;;;;;;;;;;;5041027;27;89628;-62
2023/11/17 06:02:34;;;;;;;;;;;;;;;;;;5036834;27;90869;-60
2023/11/17 06:04:59;;;;;;;;;;;;;;;;;;5036921;27;89194;-62
2023/11/17 06:07:25;;;;;;;;;;;;;;;;;;5039723;27;89312;-59
2023/11/17 06:09:50;;;;;;;;;;;;;;;;;;5040782;27;90052;-63
2023/11/17 06:12:16;;;;;;;;;;;;;;;;;;5039512;27;89560;-60
2023/11/17 06:14:41;;;;;;;;;;;;;;;;;;5034731;27;89483;-59
2023/11/17 06:17:08;;;;;;;;;;;;;;;;;;5039668;27;89862;-59
2023/11/17 06:19:36;;;;;;;;;;;;;;;;;;5037243;27;90045;-59
2023/11/17 06:22:01;;;;;;;;;;;;;;;;;;5038151;27;90669;-60
2023/11/17 06:24:27;;;;;;;;;;;;;;;;;;5041017;27;89631;-59
2023/11/17 06:26:55;;;;;;;;;;;;;;;;;;5036282;27;89814;-59
2023/11/17 06:29:22;;;;;;;;;;;;;;;;;;5041360;27;90610;-63
2023/11/17 06:31:47;;;;;;;;;;;;;;;;;;5045193;27;90154;-60
2023/11/17 06:34:12;;;;;;;;;;;;;;;;;;5038183;27;90119;-61
2023/11/17 06:36:40;;;;;;;;;;;;;;;;;;5042265;27;89557;-60
2023/11/17 06:39:14;;;;;;;;;;;;;;;;;;5023504;27;90465;-62
2023/11/17 06:41:41;;;;;;;;;;;;;;;;;;5036329;27;90858;-61
2023/11/17 06:44:06;;;;;;;;;;;;;;;;;;5034219;27;90461;-60
2023/11/17 06:46:32;;;;;;;;;;;;;;;;;;5036896;27;89164;-58
2023/11/17 06:48:58;;;;;;;;;;;;;;;;;;5021321;27;92812;-59
2023/11/17 06:51:25;;;;;;;;;;;;;;;;;;5043827;27;90372;-58
2023/11/17 06:53:51;;;;;;;;;;;;;;;;;;5037469;27;90566;-59
2023/11/17 06:56:16;;;;;;;;;;;;;;;;;;5038220;27;89194;-58
2023/11/17 06:58:41;;;;;;;;;;;;;;;;;;5037137;27;90655;-59
2023/11/17 07:01:07;;;;;;;;;;;;;;;;;;5039832;27;89918;-59
2023/11/17 07:03:32;;;;;;;;;;;;;;;;;;5039973;27;89477;-59
2023/11/17 07:05:57;;;;;;;;;;;;;;;;;;5040430;27;89708;-58
2023/11/17 07:08:23;;;;;;;;;;;;;;;;;;5038680;27;92673;-58
2023/11/17 07:10:48;;;;;;;;;;;;;;;;;;5035099;27;89675;-58
2023/11/17 07:13:13;;;;;;;;;;;;;;;;;;5034325;27;89083;-61
2023/11/17 07:15:40;;;;;;;;;;;;;;;;;;5037247;27;89696;-58
2023/11/17 07:18:06;;;;;;;;;;;;;;;;;;5037101;27;89752;-59
2023/11/17 07:20:31;;;;;;;;;;;;;;;;;;5040447;27;90563;-59
2023/11/17 07:22:57;;;;;;;;;;;;;;;;;;5036915;27;89282;-63
2023/11/17 07:25:22;;;;;;;;;;;;;;;;;;5041907;27;89620;-59
2023/11/17 07:27:48;;;;;;;;;;;;;;;;;;5038188;27;91161;-60
2023/11/17 07:30:14;;;;;;;;;;;;;;;;;;5039863;27;88978;-59
2023/11/17 07:32:40;;;;;;;;;;;;;;;;;;5036717;27;89448;-58
2023/11/17 07:35:06;;;;;;;;;;;;;;;;;;5041335;27;89722;-59
2023/11/17 07:37:31;;;;;;;;;;;;;;;;;;5041803;27;89213;-59
2023/11/17 07:39:57;;;;;;;;;;;;;;;;;;5035395;27;89579;-58
2023/11/17 07:42:23;;;;;;;;;;;;;;;;;;5040654;27;90938;-59
2023/11/17 07:44:48;;;;;;;;;;;;;;;;;;5040870;27;90505;-59
2023/11/17 07:47:13;;;;;;;;;;;;;;;;;;5037057;27;89541;-58
2023/11/17 07:49:39;;;;;;;;;;;;;;;;;;5035849;27;90606;-58
2023/11/17 07:52:04;;;;;;;;;;;;;;;;;;5039790;27;89280;-58
2023/11/17 07:54:30;;;;;;;;;;;;;;;;;;5040342;27;88970;-60
2023/11/17 07:56:56;;;;;;;;;;;;;;;;;;5041727;27;90887;-60
2023/11/17 07:59:23;;;;;;;;;;;;;;;;;;5025067;27;93254;-58
2023/11/17 08:01:49;;;;;;;;;;;;;;;;;;5038631;27;89101;-60
2023/11/17 08:04:16;;;;;;;;;;;;;;;;;;5037198;27;89304;-60
2023/11/17 08:06:41;;;;;;;;;;;;;;;;;;5036658;27;91555;-60
2023/11/17 08:09:10;;;;;;;;;;;;;;;;;;5042509;27;89878;-60
2023/11/17 08:11:36;;;;;;;;;;;;;;;;;;5037051;27;90215;-60
2023/11/17 08:14:04;;;;;;;;;;;;;;;;;;5037254;27;90197;-59
2023/11/17 08:16:30;;;;;;;;;;;;;;;;;;5026109;27;91441;-59
2023/11/17 08:18:56;;;;;;;;;;;;;;;;;;5042878;27;89880;-60
2023/11/17 08:21:23;;;;;;;;;;;;;;;;;;5038324;27;89386;-60
2023/11/17 08:23:48;;;;;;;;;;;;;;;;;;5034259;27;90948;-59
2023/11/17 08:26:15;;;;;;;;;;;;;;;;;;5036736;27;89026;-60
2023/11/17 08:28:41;;;;;;;;;;;;;;;;;;5034022;27;90745;-59
2023/11/17 08:31:06;;;;;;;;;;;;;;;;;;5032138;27;90358;-59
2023/11/17 08:33:32;;;;;;;;;;;;;;;;;;5039304;27;90396;-59
2023/11/17 08:35:57;;;;;;;;;;;;;;;;;;5032602;27;89803;-63
2023/11/17 08:38:22;;;;;;;;;;;;;;;;;;5039788;27;89664;-59
2023/11/17 08:40:50;;;;;;;;;;;;;;;;;;5039259;27;89895;-60
2023/11/17 08:43:18;;;;;;;;;;;;;;;;;;5040722;27;89970;-60
2023/11/17 08:45:44;;;;;;;;;;;;;;;;;;5034996;27;90507;-60
2023/11/17 08:48:09;;;;;;;;;;;;;;;;;;5040942;27;89526;-58
2023/11/17 08:50:35;;;;;;;;;;;;;;;;;;5044414;27;89111;-60
2023/11/17 08:53:00;;;;;;;;;;;;;;;;;;5042734;27;90785;-60
2023/11/17 08:55:27;;;;;;;;;;;;;;;;;;5041878;27;89864;-58
2023/11/17 08:57:53;;;;;;;;;;;;;;;;;;5042402;27;89302;-59
2023/11/17 09:00:24;;;;;;;;;;;;;;;;;;5044845;27;91157;-58
2023/11/17 09:02:50;;;;;;;;;;;;;;;;;;5040037;27;89491;-58
2023/11/17 09:05:16;;;;;;;;;;;;;;;;;;5039188;27;89728;-60
2023/11/17 09:07:41;;;;;;;;;;;;;;;;;;5042270;27;91617;-59
2023/11/17 09:10:08;;;;;;;;;;;;;;;;;;5040433;27;90063;-60
2023/11/17 09:12:36;;;;;;;;;;;;;;;;;;5042285;27;91050;-60
2023/11/17 09:15:01;;;;;;;;;;;;;;;;;;5042734;27;90519;-59
2023/11/17 09:17:27;;;;;;;;;;;;;;;;;;5041260;27;89400;-59
2023/11/17 09:19:53;;;;;;;;;;;;;;;;;;5039783;27;90660;-59
2023/11/17 09:22:18;;;;;;;;;;;;;;;;;;5047238;27;90356;-60
2023/11/17 09:24:43;;;;;;;;;;;;;;;;;;5041386;27;90327;-62
2023/11/17 09:27:10;;;;;;;;;;;;;;;;;;5038374;27;89606;-60
2023/11/17 09:29:36;;;;;;;;;;;;;;;;;;5038698;27;89539;-59
2023/11/17 09:32:01;;;;;;;;;;;;;;;;;;5036092;27;90034;-59
2023/11/17 09:34:27;;;;;;;;;;;;;;;;;;5041581;27;90243;-59
2023/11/17 09:36:52;;;;;;;;;;;;;;;;;;5041172;27;89219;-59
2023/11/17 09:39:18;;;;;;;;;;;;;;;;;;5039805;27;89664;-59
2023/11/17 09:41:44;;;;;;;;;;;;;;;;;;5037132;27;89609;-59
2023/11/17 09:44:13;;;;;;;;;;;;;;;;;;5021636;27;89206;-59
2023/11/17 09:46:56;;;;;;;;;;;;;;;;;;5041887;27;89783;-59
2023/11/17 09:49:23;;;;;;;;;;;;;;;;;;5042547;27;89443;-59
2023/11/17 09:51:49;;;;;;;;;;;;;;;;;;5043146;27;90642;-59
2023/11/17 09:54:15;;;;;;;;;;;;;;;;;;5042784;27;89035;-58
2023/11/17 09:56:44;;;;;;;;;;;;;;;;;;5040612;27;90004;-59
2023/11/17 09:59:09;;;;;;;;;;;;;;;;;;5036870;27;92253;-59
2023/11/17 10:01:36;;;;;;;;;;;;;;;;;;5041193;27;89285;-59
2023/11/17 10:04:05;;;;;;;;;;;;;;;;;;5044563;27;89601;-58
2023/11/17 10:06:32;;;;;;;;;;;;;;;;;;5044236;27;90890;-59
2023/11/17 10:08:58;;;;;;;;;;;;;;;;;;5038139;27;89137;-59
2023/11/17 10:11:25;;;;;;;;;;;;;;;;;;5038136;27;89584;-61
2023/11/17 10:13:52;;;;;;;;;;;;;;;;;;5035924;27;90203;-60
2023/11/17 10:16:19;;;;;;;;;;;;;;;;;;5041388;27;89017;-59
2023/11/17 10:18:47;;;;;;;;;;;;;;;;;;5037351;27;90140;-61
2023/11/17 10:21:13;;;;;;;;;;;;;;;;;;5041933;27;89582;-59
2023/11/17 10:23:40;;;;;;;;;;;;;;;;;;5039844;27;90181;-60
2023/11/17 10:26:07;;;;;;;;;;;;;;;;;;5039973;27;90464;-61
2023/11/17 10:28:32;;;;;;;;;;;;;;;;;;5044446;27;89184;-62
2023/11/17 10:30:59;;;;;;;;;;;;;;;;;;5041820;27;89639;-60
2023/11/17 10:33:29;;;;;;;;;;;;;;;;;;5040685;27;90363;-60
2023/11/17 10:36:01;;;;;;;;;;;;;;;;;;5032323;27;89904;-59
2023/11/17 10:38:26;;;;;;;;;;;;;;;;;;5039810;27;91355;-58
2023/11/17 10:40:51;;;;;;;;;;;;;;;;;;5035149;27;91139;-60
2023/11/17 10:43:17;;;;;;;;;;;;;;;;;;5041105;27;89109;-58
2023/11/17 10:45:43;;;;;;;;;;;;;;;;;;5035868;27;91621;-60
2023/11/17 10:48:13;;;;;;;;;;;;;;;;;;5041884;27;89811;-58
2023/11/17 10:50:38;;;;;;;;;;;;;;;;;;5038928;27;90706;-59
2023/11/17 10:53:18;;;;;;;;;;;;;;;;;;5019242;27;89794;-59
2023/11/17 10:55:43;;;;;;;;;;;;;;;;;;5039563;27;89657;-58
2023/11/17 10:58:15;;;;;;;;;;;;;;;;;;5038309;27;89897;-59
2023/11/17 11:00:40;;;;;;;;;;;;;;;;;;5036577;27;90232;-59
2023/11/17 11:03:13;;;;;;;;;;;;;;;;;;5041051;27;89547;-59
2023/11/17 11:05:40;;;;;;;;;;;;;;;;;;5039053;27;90482;-59
2023/11/17 11:08:06;;;;;;;;;;;;;;;;;;5037670;27;89071;-58
2023/11/17 11:10:34;;;;;;;;;;;;;;;;;;5040466;27;89748;-59
2023/11/17 11:13:01;;;;;;;;;;;;;;;;;;5032683;27;89913;-59
2023/11/17 11:15:27;;;;;;;;;;;;;;;;;;5037022;27;89645;-58
2023/11/17 11:17:54;;;;;;;;;;;;;;;;;;5033741;27;93213;-58
2023/11/17 11:20:22;;;;;;;;;;;;;;;;;;5042082;27;89867;-59
2023/11/17 11:22:50;;;;;;;;;;;;;;;;;;5041388;27;89130;-58
2023/11/17 11:25:16;;;;;;;;;;;;;;;;;;5037602;27;90815;-59
2023/11/17 11:27:43;;;;;;;;;;;;;;;;;;5034704;27;89609;-59
2023/11/17 11:30:09;;;;;;;;;;;;;;;;;;5037471;27;89326;-59
2023/11/17 11:32:35;;;;;;;;;;;;;;;;;;5045007;27;89550;-59
2023/11/17 11:35:00;;;;;;;;;;;;;;;;;;5037721;27;90392;-63
2023/11/17 11:37:32;;;;;;;;;;;;;;;;;;5038670;27;89843;-60
2023/11/17 11:39:57;;;;;;;;;;;;;;;;;;5035538;27;90250;-57
2023/11/17 11:42:23;;;;;;;;;;;;;;;;;;5036397;27;89226;-61
2023/11/17 11:44:51;;;;;;;;;;;;;;;;;;5017034;28;89968;-59
2023/11/17 11:47:16;;;;;;;;;;;;;;;;;;5035738;27;90149;-58
2023/11/17 11:49:44;;;;;;;;;;;;;;;;;;5021444;27;89664;-58
2023/11/17 11:52:16;;;;;;;;;;;;;;;;;;5036687;27;89894;-60
2023/11/17 11:54:41;;;;;;;;;;;;;;;;;;5040658;27;89792;-58
2023/11/17 11:57:27;;;;;;;;;;;;;;;;;;5035796;27;90182;-59
2023/11/17 11:59:59;;;;;;;;;;;;;;;;;;5038041;27;90191;-59
2023/11/17 12:02:24;;;;;;;;;;;;;;;;;;5036656;27;89014;-59
2023/11/17 12:04:53;;;;;;;;;;;;;;;;;;5038412;27;89716;-58
2023/11/17 12:07:45;;;;;;;;;;;;;;;;;;5033230;27;91857;-58
2023/11/17 12:10:15;;;;;;;;;;;;;;;;;;5031487;27;89849;-59
2023/11/17 12:12:41;;;;;;;;;;;;;;;;;;5038427;27;90684;-58
2023/11/17 12:15:07;;;;;;;;;;;;;;;;;;5033119;27;90547;-58
2023/11/17 12:17:41;;;;;;;;;;;;;;;;;;5030197;27;89144;-58
2023/11/17 12:20:26;;;;;;;;;;;;;;;;;;5039943;27;89256;-58
2023/11/17 12:23:01;;;;;;;;;;;;;;;;;;5042967;27;89024;-59
2023/11/17 12:25:30;;;;;;;;;;;;;;;;;;5042180;27;89478;-59
2023/11/17 12:27:56;;;;;;;;;;;;;;;;;;5038967;27;89875;-58
2023/11/17 12:30:22;;;;;;;;;;;;;;;;;;5039870;27;90205;-59
2023/11/17 12:32:51;;;;;;;;;;;;;;;;;;5043409;27;89557;-58
2023/11/17 12:35:17;;;;;;;;;;;;;;;;;;5041408;27;90790;-58
2023/11/17 12:37:43;;;;;;;;;;;;;;;;;;5040352;27;89204;-59
2023/11/17 12:40:15;;;;;;;;;;;;;;;;;;5044870;27;90149;-58
2023/11/17 12:42:40;;;;;;;;;;;;;;;;;;5044554;27;90191;-58
2023/11/17 12:45:07;;;;;;;;;;;;;;;;;;5042003;27;90376;-58
2023/11/17 12:47:32;;;;;;;;;;;;;;;;;;5040095;27;89865;-59
2023/11/17 12:49:58;;;;;;;;;;;;;;;;;;5042293;27;89067;-58
2023/11/17 12:52:24;;;;;;;;;;;;;;;;;;5041706;27;91325;-58
2023/11/17 12:55:04;;;;;;;;;;;;;;;;;;5044413;27;90599;-58
2023/11/17 12:57:30;;;;;;;;;;;;;;;;;;5040539;27;90950;-58
2023/11/17 12:59:56;;;;;;;;;;;;;;;;;;5046676;27;89948;-58
2023/11/17 13:02:22;;;;;;;;;;;;;;;;;;5041619;27;89641;-58
2023/11/17 13:04:47;;;;;;;;;;;;;;;;;;5042994;27;90782;-58
2023/11/17 13:07:13;;;;;;;;;;;;;;;;;;5042664;27;89224;-58
2023/11/17 13:09:39;;;;;;;;;;;;;;;;;;5038696;27;89783;-58
2023/11/17 13:12:06;;;;;;;;;;;;;;;;;;5043480;27;90697;-59
2023/11/17 13:14:31;;;;;;;;;;;;;;;;;;5035371;27;89258;-59
2023/11/17 13:16:56;;;;;;;;;;;;;;;;;;5044157;27;89808;-59
2023/11/17 13:19:22;;;;;;;;;;;;;;;;;;5043952;27;90441;-59
2023/11/17 13:21:48;;;;;;;;;;;;;;;;;;5044448;27;89461;-58
2023/11/17 13:24:13;;;;;;;;;;;;;;;;;;5042521;27;91932;-60
2023/11/17 13:26:39;;;;;;;;;;;;;;;;;;5039629;27;90756;-59
2023/11/17 13:29:13;;;;;;;;;;;;;;;;;;5037365;27;89551;-60
2023/11/17 13:31:39;;;;;;;;;;;;;;;;;;5043639;27;91794;-60
2023/11/17 13:34:11;;;;;;;;;;;;;;;;;;5040587;27;89175;-59
2023/11/17 13:36:37;;;;;;;;;;;;;;;;;;5044258;27;89787;-58
2023/11/17 13:39:26;;;;;;;;;;;;;;;;;;5037885;27;90138;-60
2023/11/17 13:41:49;;;;;;;;;;;;;;;;;;5034825;27;90091;-59
2023/11/17 13:44:15;;;;;;;;;;;;;;;;;;5042297;27;89147;-59
2023/11/17 13:46:43;;;;;;;;;;;;;;;;;;5041871;27;89216;-58
2023/11/17 13:49:12;;;;;;;;;;;;;;;;;;5038692;27;91118;-58
2023/11/17 13:51:44;;;;;;;;;;;;;;;;;;5039438;27;90017;-59
2023/11/17 13:54:10;;;;;;;;;;;;;;;;;;5041874;27;90314;-58
2023/11/17 13:56:38;;;;;;;;;;;;;;;;;;5027051;27;89537;-58
2023/11/17 13:59:04;;;;;;;;;;;;;;;;;;5037349;27;90756;-57
2023/11/17 14:01:29;;;;;;;;;;;;;;;;;;5039287;27;90679;-58
2023/11/17 14:03:56;;;;;;;;;;;;;;;;;;5040470;27;89139;-58
2023/11/17 14:06:21;;;;;;;;;;;;;;;;;;5045982;27;89485;-58
2023/11/17 14:08:49;;;;;;;;;;;;;;;;;;5036711;27;89826;-58
2023/11/17 14:11:14;;;;;;;;;;;;;;;;;;5042090;27;90882;-58
2023/11/17 14:13:42;;;;;;;;;;;;;;;;;;5035276;27;89225;-58
2023/11/17 14:16:08;;;;;;;;;;;;;;;;;;5033867;27;90676;-58
2023/11/17 14:18:35;;;;;;;;;;;;;;;;;;5037875;27;91024;-58
2023/11/17 14:21:00;;;;;;;;;;;;;;;;;;5037906;27;90659;-58
2023/11/17 14:23:26;;;;;;;;;;;;;;;;;;5040720;27;90278;-58
2023/11/17 14:25:52;;;;;;;;;;;;;;;;;;5035945;27;90680;-58
2023/11/17 14:28:17;;;;;;;;;;;;;;;;;;5040698;27;90130;-58
2023/11/17 14:30:42;;;;;;;;;;;;;;;;;;5039110;27;89699;-58
2023/11/17 14:33:07;;;;;;;;;;;;;;;;;;5042418;27;91026;-58
2023/11/17 14:35:33;;;;;;;;;;;;;;;;;;5042081;27;89688;-58
2023/11/17 14:37:59;;;;;;;;;;;;;;;;;;5042418;27;89908;-59
2023/11/17 14:40:25;;;;;;;;;;;;;;;;;;5036512;27;89775;-58
2023/11/17 14:42:58;;;;;;;;;;;;;;;;;;5035144;27;89550;-58
2023/11/17 14:45:25;;;;;;;;;;;;;;;;;;4987622;28;101956;-58
2023/11/17 14:47:52;;;;;;;;;;;;;;;;;;5017298;28;90877;-58
2023/11/17 14:50:18;;;;;;;;;;;;;;;;;;5011387;28;89204;-59
2023/11/17 14:52:43;;;;;;;;;;;;;;;;;;5018948;28;89890;-58
2023/11/17 14:55:10;;;;;;;;;;;;;;;;;;5018013;28;91316;-58
2023/11/17 14:57:35;;;;;;;;;;;;;;;;;;5017439;28;90751;-58
2023/11/17 15:00:01;;;;;;;;;;;;;;;;;;5016554;28;90095;-58
2023/11/17 15:02:26;;;;;;;;;;;;;;;;;;5017200;28;89425;-58
2023/11/17 15:04:55;;;;;;;;;;;;;;;;;;5013433;28;90005;-57
2023/11/17 15:07:20;;;;;;;;;;;;;;;;;;5022141;28;89678;-58
2023/11/17 15:09:46;;;;;;;;;;;;;;;;;;5019956;28;89744;-59
2023/11/17 15:12:12;;;;;;;;;;;;;;;;;;5014334;28;90272;-59
2023/11/17 15:14:37;;;;;;;;;;;;;;;;;;5015204;28;90871;-59
2023/11/17 15:17:05;;;;;;;;;;;;;;;;;;5020370;28;89492;-60
2023/11/17 15:19:32;;;;;;;;;;;;;;;;;;5017611;28;90560;-59
2023/11/17 15:21:58;;;;;;;;;;;;;;;;;;5015861;28;89547;-59
2023/11/17 15:24:24;;;;;;;;;;;;;;;;;;5018209;28;90327;-58
2023/11/17 15:26:52;;;;;;;;;;;;;;;;;;5016066;28;90104;-59
2023/11/17 15:29:21;;;;;;;;;;;;;;;;;;5016991;28;89542;-58
2023/11/17 15:31:49;;;;;;;;;;;;;;;;;;5020909;28;90478;-58
2023/11/17 15:34:17;;;;;;;;;;;;;;;;;;5017938;28;89153;-58
2023/11/17 15:36:43;;;;;;;;;;;;;;;;;;5016002;28;89938;-59
2023/11/17 15:39:15;;;;;;;;;;;;;;;;;;5017255;28;89714;-59
2023/11/17 15:41:41;;;;;;;;;;;;;;;;;;5016399;28;89697;-60
2023/11/17 15:44:07;;;;;;;;;;;;;;;;;;5015966;28;89495;-59
2023/11/17 15:46:35;;;;;;;;;;;;;;;;;;5014236;28;90133;-64
2023/11/17 15:49:03;;;;;;;;;;;;;;;;;;5015619;28;89919;-59
2023/11/17 15:51:29;;;;;;;;;;;;;;;;;;5018340;28;90153;-59
2023/11/17 15:53:55;;;;;;;;;;;;;;;;;;5015982;28;89814;-59
2023/11/17 15:56:21;;;;;;;;;;;;;;;;;;5020700;28;89734;-58
2023/11/17 15:58:46;;;;;;;;;;;;;;;;;;5006724;28;91980;-59
2023/11/17 16:01:12;;;;;;;;;;;;;;;;;;5020386;28;89201;-63
2023/11/17 16:03:40;;;;;;;;;;;;;;;;;;5021319;28;91783;-59
2023/11/17 16:06:10;;;;;;;;;;;;;;;;;;5025037;28;90612;-58
2023/11/17 16:08:36;;;;;;;;;;;;;;;;;;5023916;28;89716;-59
2023/11/17 16:11:08;;;;;;;;;;;;;;;;;;5022236;28;89534;-58
2023/11/17 16:13:34;;;;;;;;;;;;;;;;;;5019682;28;90184;-59
2023/11/17 16:16:00;;;;;;;;;;;;;;;;;;5022767;28;90251;-59
2023/11/17 16:18:27;;;;;;;;;;;;;;;;;;5014493;28;90283;-59
2023/11/17 16:20:52;;;;;;;;;;;;;;;;;;5022444;28;89638;-59
2023/11/17 16:23:18;;;;;;;;;;;;;;;;;;5019215;28;89953;-58
2023/11/17 16:25:43;;;;;;;;;;;;;;;;;;5021332;28;89762;-58
2023/11/17 16:28:10;;;;;;;;;;;;;;;;;;5020333;28;89031;-58
2023/11/17 16:30:38;;;;;;;;;;;;;;;;;;5021933;28;90672;-58
2023/11/17 16:33:06;;;;;;;;;;;;;;;;;;5025205;28;90042;-58
2023/11/17 16:35:33;;;;;;;;;;;;;;;;;;5019737;27;91798;-59
2023/11/17 16:37:59;;;;;;;;;;;;;;;;;;5024399;28;92080;-59
2023/11/17 16:40:26;;;;;;;;;;;;;;;;;;5020895;28;89290;-58
2023/11/17 16:42:55;;;;;;;;;;;;;;;;;;5019267;28;90196;-58